sensor_id;sensor_type;location;lat;lon;timestamp;temperature;humidity
14737;DHT22;7459;53.590;10.062;2022-10-16T00:01:22;15.00;99.90
14737;DHT22;7459;53.590;10.062;2022-10-16T00:03:49;15.00;99.90
14737;DHT22;7459;53.590;10.062;2022-10-16T00:06:17;15.10;99.90
14737;DHT22;7459;53.590;10.062;2022-10-16T00:08:44;15.00;99.90
14737;DHT22;7459;53.590;10.062;2022-10-16T00:11:16;15.00;99.90
14737;DHT22;7459;53.590;10.062;2022-10-16T00:13:44;15.00;99.90
14737;DHT22;7459;53.590;10.062;2022-10-16T00:16:12;15.00;99.90
14737;DHT22;7459;53.590;10.062;2022-10-16T00:18:39;15.00;99.90
14737;DHT22;7459;53.590;10.062;2022-10-16T00:21:15;15.00;99.90
14737;DHT22;7459;53.590;10.062;2022-10-16T00:23:42;15.00;99.90
14737;DHT22;7459;53.590;10.062;2022-10-16T00:26:11;15.00;99.90
14737;DHT22;7459;53.590;10.062;2022-10-16T00:28:38;15.00;99.90
14737;DHT22;7459;53.590;10.062;2022-10-16T00:31:07;15.00;99.90
14737;DHT22;7459;53.590;10.062;2022-10-16T00:33:35;15.00;99.90
14737;DHT22;7459;53.590;10.062;2022-10-16T00:36:03;15.00;99.90
14737;DHT22;7459;53.590;10.062;2022-10-16T00:38:30;15.00;99.90
14737;DHT22;7459;53.590;10.062;2022-10-16T00:40:56;14.90;99.90
14737;DHT22;7459;53.590;10.062;2022-10-16T00:48:59;15.00;99.90
14737;DHT22;7459;53.590;10.062;2022-10-16T00:51:37;15.00;99.90
14737;DHT22;7459;53.590;10.062;2022-10-16T00:54:09;15.00;99.90
14737;DHT22;7459;53.590;10.062;2022-10-16T00:56:37;15.00;99.90
14737;DHT22;7459;53.590;10.062;2022-10-16T00:59:10;15.00;99.90
14737;DHT22;7459;53.590;10.062;2022-10-16T01:01:40;15.00;99.90
14737;DHT22;7459;53.590;10.062;2022-10-16T01:04:06;15.00;99.90
14737;DHT22;7459;53.590;10.062;2022-10-16T01:06:46;15.10;99.90
14737;DHT22;7459;53.590;10.062;2022-10-16T01:12:16;15.00;99.90
14737;DHT22;7459;53.590;10.062;2022-10-16T01:14:59;15.10;99.90
14737;DHT22;7459;53.590;10.062;2022-10-16T01:17:37;15.00;99.90
14737;DHT22;7459;53.590;10.062;2022-10-16T01:26:20;15.00;99.90
14737;DHT22;7459;53.590;10.062;2022-10-16T01:29:09;15.00;99.90
14737;DHT22;7459;53.590;10.062;2022-10-16T01:31:50;15.00;99.90
14737;DHT22;7459;53.590;10.062;2022-10-16T01:34:25;15.00;99.90
14737;DHT22;7459;53.590;10.062;2022-10-16T01:37:02;15.00;99.90
14737;DHT22;7459;53.590;10.062;2022-10-16T01:39:42;15.00;99.90
14737;DHT22;7459;53.590;10.062;2022-10-16T01:42:16;14.90;99.90
14737;DHT22;7459;53.590;10.062;2022-10-16T01:44:46;14.90;99.90
14737;DHT22;7459;53.590;10.062;2022-10-16T01:47:13;14.90;99.90
14737;DHT22;7459;53.590;10.062;2022-10-16T01:49:40;14.90;99.90
14737;DHT22;7459;53.590;10.062;2022-10-16T01:52:11;14.90;99.90
14737;DHT22;7459;53.590;10.062;2022-10-16T01:54:43;14.90;99.90
14737;DHT22;7459;53.590;10.062;2022-10-16T01:57:12;14.90;99.90
14737;DHT22;7459;53.590;10.062;2022-10-16T01:59:46;14.80;99.90
14737;DHT22;7459;53.590;10.062;2022-10-16T02:02:14;14.80;99.90
14737;DHT22;7459;53.590;10.062;2022-10-16T02:04:45;14.80;99.90
14737;DHT22;7459;53.590;10.062;2022-10-16T02:07:13;14.80;99.90
14737;DHT22;7459;53.590;10.062;2022-10-16T02:09:39;14.80;99.90
14737;DHT22;7459;53.590;10.062;2022-10-16T02:12:29;14.80;99.90
14737;DHT22;7459;53.590;10.062;2022-10-16T02:14:57;14.80;99.90
14737;DHT22;7459;53.590;10.062;2022-10-16T02:17:23;14.70;99.90
14737;DHT22;7459;53.590;10.062;2022-10-16T02:19:53;14.70;99.90
14737;DHT22;7459;53.590;10.062;2022-10-16T02:22:28;14.70;99.90
14737;DHT22;7459;53.590;10.062;2022-10-16T02:24:59;14.70;99.90
14737;DHT22;7459;53.590;10.062;2022-10-16T02:32:48;14.70;99.90
14737;DHT22;7459;53.590;10.062;2022-10-16T02:35:18;14.70;99.90
14737;DHT22;7459;53.590;10.062;2022-10-16T02:37:47;14.70;99.90
14737;DHT22;7459;53.590;10.062;2022-10-16T02:40:14;14.60;99.90
14737;DHT22;7459;53.590;10.062;2022-10-16T02:42:41;14.60;99.90
14737;DHT22;7459;53.590;10.062;2022-10-16T02:45:09;14.60;99.90
14737;DHT22;7459;53.590;10.062;2022-10-16T02:47:35;14.50;99.90
14737;DHT22;7459;53.590;10.062;2022-10-16T02:50:01;14.50;99.90
14737;DHT22;7459;53.590;10.062;2022-10-16T02:52:27;14.60;99.90
14737;DHT22;7459;53.590;10.062;2022-10-16T02:54:53;14.50;99.90
14737;DHT22;7459;53.590;10.062;2022-10-16T02:57:18;14.50;99.90
14737;DHT22;7459;53.590;10.062;2022-10-16T02:59:44;14.50;99.90
14737;DHT22;7459;53.590;10.062;2022-10-16T03:02:10;14.50;99.90
14737;DHT22;7459;53.590;10.062;2022-10-16T03:04:37;14.50;99.90
14737;DHT22;7459;53.590;10.062;2022-10-16T03:07:03;14.50;99.90
14737;DHT22;7459;53.590;10.062;2022-10-16T03:09:29;14.50;99.90
14737;DHT22;7459;53.590;10.062;2022-10-16T03:11:54;14.50;99.90
14737;DHT22;7459;53.590;10.062;2022-10-16T03:14:20;14.40;99.90
14737;DHT22;7459;53.590;10.062;2022-10-16T03:16:46;14.40;99.90
14737;DHT22;7459;53.590;10.062;2022-10-16T03:19:11;14.40;99.90
14737;DHT22;7459;53.590;10.062;2022-10-16T03:21:37;14.40;99.90
14737;DHT22;7459;53.590;10.062;2022-10-16T03:24:03;14.40;99.90
14737;DHT22;7459;53.590;10.062;2022-10-16T03:26:29;14.40;99.90
14737;DHT22;7459;53.590;10.062;2022-10-16T03:28:55;14.40;99.90
14737;DHT22;7459;53.590;10.062;2022-10-16T03:31:20;14.40;99.90
14737;DHT22;7459;53.590;10.062;2022-10-16T03:33:46;14.30;99.90
14737;DHT22;7459;53.590;10.062;2022-10-16T03:36:12;14.40;99.90
14737;DHT22;7459;53.590;10.062;2022-10-16T03:38:37;14.40;99.90
14737;DHT22;7459;53.590;10.062;2022-10-16T03:41:03;14.30;99.90
14737;DHT22;7459;53.590;10.062;2022-10-16T03:43:29;14.30;99.90
14737;DHT22;7459;53.590;10.062;2022-10-16T03:45:55;14.30;99.90
14737;DHT22;7459;53.590;10.062;2022-10-16T03:48:20;14.30;99.90
14737;DHT22;7459;53.590;10.062;2022-10-16T03:50:46;14.30;99.90
14737;DHT22;7459;53.590;10.062;2022-10-16T03:53:14;14.30;99.90
14737;DHT22;7459;53.590;10.062;2022-10-16T03:55:41;14.20;99.90
14737;DHT22;7459;53.590;10.062;2022-10-16T03:58:07;14.20;99.90
14737;DHT22;7459;53.590;10.062;2022-10-16T04:00:33;14.30;99.90
14737;DHT22;7459;53.590;10.062;2022-10-16T04:03:00;14.20;99.90
14737;DHT22;7459;53.590;10.062;2022-10-16T04:05:26;14.20;99.90
14737;DHT22;7459;53.590;10.062;2022-10-16T04:07:52;14.20;99.90
14737;DHT22;7459;53.590;10.062;2022-10-16T04:10:17;14.10;99.90
14737;DHT22;7459;53.590;10.062;2022-10-16T04:12:44;14.10;99.90
14737;DHT22;7459;53.590;10.062;2022-10-16T04:15:10;14.10;99.90
14737;DHT22;7459;53.590;10.062;2022-10-16T04:17:35;14.10;99.90
14737;DHT22;7459;53.590;10.062;2022-10-16T04:20:01;14.10;99.90
14737;DHT22;7459;53.590;10.062;2022-10-16T04:22:27;14.10;99.90
14737;DHT22;7459;53.590;10.062;2022-10-16T04:24:53;14.10;99.90
14737;DHT22;7459;53.590;10.062;2022-10-16T04:27:19;14.10;99.90
14737;DHT22;7459;53.590;10.062;2022-10-16T04:29:45;14.10;99.90
14737;DHT22;7459;53.590;10.062;2022-10-16T04:32:10;14.10;99.90
14737;DHT22;7459;53.590;10.062;2022-10-16T04:34:36;14.10;99.90
14737;DHT22;7459;53.590;10.062;2022-10-16T04:37:04;14.10;99.90
14737;DHT22;7459;53.590;10.062;2022-10-16T04:39:30;14.10;99.90
14737;DHT22;7459;53.590;10.062;2022-10-16T04:41:56;14.10;99.90
14737;DHT22;7459;53.590;10.062;2022-10-16T04:44:22;14.10;99.90
14737;DHT22;7459;53.590;10.062;2022-10-16T04:46:49;14.10;99.90
14737;DHT22;7459;53.590;10.062;2022-10-16T04:49:15;14.10;99.90
14737;DHT22;7459;53.590;10.062;2022-10-16T04:51:41;14.10;99.90
14737;DHT22;7459;53.590;10.062;2022-10-16T04:54:07;14.10;99.90
14737;DHT22;7459;53.590;10.062;2022-10-16T04:56:33;14.10;99.90
14737;DHT22;7459;53.590;10.062;2022-10-16T04:59:05;14.10;99.90
14737;DHT22;7459;53.590;10.062;2022-10-16T05:01:31;14.10;99.90
14737;DHT22;7459;53.590;10.062;2022-10-16T05:03:57;14.20;99.90
14737;DHT22;7459;53.590;10.062;2022-10-16T05:06:22;14.10;99.90
14737;DHT22;7459;53.590;10.062;2022-10-16T05:08:48;14.10;99.90
14737;DHT22;7459;53.590;10.062;2022-10-16T05:11:14;14.10;99.90
14737;DHT22;7459;53.590;10.062;2022-10-16T05:13:39;14.10;99.90
14737;DHT22;7459;53.590;10.062;2022-10-16T05:16:05;14.10;99.90
14737;DHT22;7459;53.590;10.062;2022-10-16T05:18:31;14.10;99.90
14737;DHT22;7459;53.590;10.062;2022-10-16T05:20:57;14.10;99.90
14737;DHT22;7459;53.590;10.062;2022-10-16T05:23:22;14.10;99.90
14737;DHT22;7459;53.590;10.062;2022-10-16T05:25:55;14.10;99.90
14737;DHT22;7459;53.590;10.062;2022-10-16T05:28:24;14.10;99.90
14737;DHT22;7459;53.590;10.062;2022-10-16T05:30:50;14.10;99.90
14737;DHT22;7459;53.590;10.062;2022-10-16T05:33:16;14.10;99.90
14737;DHT22;7459;53.590;10.062;2022-10-16T05:35:42;14.10;99.90
14737;DHT22;7459;53.590;10.062;2022-10-16T05:38:09;14.10;99.90
14737;DHT22;7459;53.590;10.062;2022-10-16T05:40:34;14.10;99.90
14737;DHT22;7459;53.590;10.062;2022-10-16T05:43:00;14.10;99.90
14737;DHT22;7459;53.590;10.062;2022-10-16T05:45:26;14.10;99.90
14737;DHT22;7459;53.590;10.062;2022-10-16T05:47:52;14.10;99.90
14737;DHT22;7459;53.590;10.062;2022-10-16T05:50:17;14.10;99.90
14737;DHT22;7459;53.590;10.062;2022-10-16T05:52:43;14.10;99.90
14737;DHT22;7459;53.590;10.062;2022-10-16T05:55:09;14.10;99.90
14737;DHT22;7459;53.590;10.062;2022-10-16T05:57:34;14.10;99.90
14737;DHT22;7459;53.590;10.062;2022-10-16T06:00:00;14.10;99.90
14737;DHT22;7459;53.590;10.062;2022-10-16T06:02:26;14.20;99.90
14737;DHT22;7459;53.590;10.062;2022-10-16T06:04:52;14.20;99.90
14737;DHT22;7459;53.590;10.062;2022-10-16T06:07:21;14.20;99.90
14737;DHT22;7459;53.590;10.062;2022-10-16T06:09:48;14.20;99.90
14737;DHT22;7459;53.590;10.062;2022-10-16T06:12:15;14.20;99.90
14737;DHT22;7459;53.590;10.062;2022-10-16T06:14:41;14.30;99.90
14737;DHT22;7459;53.590;10.062;2022-10-16T06:17:07;14.30;99.90
14737;DHT22;7459;53.590;10.062;2022-10-16T06:19:32;14.30;99.90
14737;DHT22;7459;53.590;10.062;2022-10-16T06:21:58;14.30;99.90
14737;DHT22;7459;53.590;10.062;2022-10-16T06:24:25;14.30;99.90
14737;DHT22;7459;53.590;10.062;2022-10-16T06:26:51;14.30;99.90
14737;DHT22;7459;53.590;10.062;2022-10-16T06:29:19;14.30;99.90
14737;DHT22;7459;53.590;10.062;2022-10-16T06:31:45;14.30;99.90
14737;DHT22;7459;53.590;10.062;2022-10-16T06:34:11;14.30;99.90
14737;DHT22;7459;53.590;10.062;2022-10-16T06:36:38;14.30;99.90
14737;DHT22;7459;53.590;10.062;2022-10-16T06:39:05;14.30;99.90
14737;DHT22;7459;53.590;10.062;2022-10-16T06:41:33;14.30;99.90
14737;DHT22;7459;53.590;10.062;2022-10-16T06:43:59;14.30;99.90
14737;DHT22;7459;53.590;10.062;2022-10-16T06:46:25;14.30;99.90
14737;DHT22;7459;53.590;10.062;2022-10-16T06:48:52;14.40;99.90
14737;DHT22;7459;53.590;10.062;2022-10-16T06:51:20;14.40;99.90
14737;DHT22;7459;53.590;10.062;2022-10-16T06:53:49;14.40;99.90
14737;DHT22;7459;53.590;10.062;2022-10-16T06:56:19;14.40;99.90
14737;DHT22;7459;53.590;10.062;2022-10-16T06:58:50;14.50;99.90
14737;DHT22;7459;53.590;10.062;2022-10-16T07:01:18;14.50;99.90
14737;DHT22;7459;53.590;10.062;2022-10-16T07:03:46;14.60;99.90
14737;DHT22;7459;53.590;10.062;2022-10-16T07:06:15;14.70;99.90
14737;DHT22;7459;53.590;10.062;2022-10-16T07:08:43;14.80;99.90
14737;DHT22;7459;53.590;10.062;2022-10-16T07:11:12;14.90;99.90
14737;DHT22;7459;53.590;10.062;2022-10-16T07:13:41;14.90;99.90
14737;DHT22;7459;53.590;10.062;2022-10-16T07:16:17;15.00;99.90
14737;DHT22;7459;53.590;10.062;2022-10-16T07:18:44;15.00;99.90
14737;DHT22;7459;53.590;10.062;2022-10-16T07:21:19;15.00;99.90
14737;DHT22;7459;53.590;10.062;2022-10-16T07:23:50;15.00;99.90
14737;DHT22;7459;53.590;10.062;2022-10-16T07:26:16;15.00;99.90
14737;DHT22;7459;53.590;10.062;2022-10-16T07:28:43;15.00;99.90
14737;DHT22;7459;53.590;10.062;2022-10-16T07:31:12;15.00;99.90
14737;DHT22;7459;53.590;10.062;2022-10-16T07:33:40;15.00;99.90
14737;DHT22;7459;53.590;10.062;2022-10-16T07:36:08;14.90;99.90
14737;DHT22;7459;53.590;10.062;2022-10-16T07:38:34;14.90;99.90
14737;DHT22;7459;53.590;10.062;2022-10-16T07:41:05;14.90;99.90
14737;DHT22;7459;53.590;10.062;2022-10-16T07:43:32;14.90;99.90
14737;DHT22;7459;53.590;10.062;2022-10-16T07:45:58;14.90;99.90
14737;DHT22;7459;53.590;10.062;2022-10-16T07:48:27;15.00;99.90
14737;DHT22;7459;53.590;10.062;2022-10-16T07:51:02;15.00;99.90
14737;DHT22;7459;53.590;10.062;2022-10-16T07:53:29;15.10;99.90
14737;DHT22;7459;53.590;10.062;2022-10-16T07:56:06;15.20;99.90
14737;DHT22;7459;53.590;10.062;2022-10-16T07:58:34;15.30;99.90
14737;DHT22;7459;53.590;10.062;2022-10-16T08:01:10;15.30;99.90
14737;DHT22;7459;53.590;10.062;2022-10-16T08:03:38;15.30;99.90
14737;DHT22;7459;53.590;10.062;2022-10-16T08:06:06;15.30;99.90
14737;DHT22;7459;53.590;10.062;2022-10-16T08:08:32;15.20;99.90
14737;DHT22;7459;53.590;10.062;2022-10-16T08:10:57;15.20;99.90
14737;DHT22;7459;53.590;10.062;2022-10-16T08:13:23;15.20;99.90
14737;DHT22;7459;53.590;10.062;2022-10-16T08:15:49;15.20;99.90
14737;DHT22;7459;53.590;10.062;2022-10-16T08:18:15;15.20;99.90
14737;DHT22;7459;53.590;10.062;2022-10-16T08:20:42;15.20;99.90
14737;DHT22;7459;53.590;10.062;2022-10-16T08:23:10;15.20;99.90
14737;DHT22;7459;53.590;10.062;2022-10-16T08:25:37;15.20;99.90
14737;DHT22;7459;53.590;10.062;2022-10-16T08:28:07;15.30;99.90
14737;DHT22;7459;53.590;10.062;2022-10-16T08:30:34;15.30;99.90
14737;DHT22;7459;53.590;10.062;2022-10-16T08:33:00;15.40;99.90
14737;DHT22;7459;53.590;10.062;2022-10-16T08:35:26;15.40;99.90
14737;DHT22;7459;53.590;10.062;2022-10-16T08:37:52;15.50;99.90
14737;DHT22;7459;53.590;10.062;2022-10-16T08:40:23;15.60;99.90
14737;DHT22;7459;53.590;10.062;2022-10-16T08:43:16;15.70;99.90
14737;DHT22;7459;53.590;10.062;2022-10-16T08:49:03;15.70;99.90
14737;DHT22;7459;53.590;10.062;2022-10-16T08:51:30;15.80;99.90
14737;DHT22;7459;53.590;10.062;2022-10-16T08:54:22;15.80;99.90
14737;DHT22;7459;53.590;10.062;2022-10-16T08:57:08;15.80;99.90
14737;DHT22;7459;53.590;10.062;2022-10-16T08:59:34;15.80;99.90
14737;DHT22;7459;53.590;10.062;2022-10-16T09:02:00;15.80;99.90
14737;DHT22;7459;53.590;10.062;2022-10-16T09:13:36;15.80;99.90
14737;DHT22;7459;53.590;10.062;2022-10-16T09:21:46;15.90;99.90
14737;DHT22;7459;53.590;10.062;2022-10-16T09:24:18;16.00;99.90
14737;DHT22;7459;53.590;10.062;2022-10-16T09:26:47;16.00;99.90
14737;DHT22;7459;53.590;10.062;2022-10-16T09:29:13;16.10;99.90
14737;DHT22;7459;53.590;10.062;2022-10-16T09:31:40;16.10;99.90
14737;DHT22;7459;53.590;10.062;2022-10-16T09:34:31;16.10;99.90
14737;DHT22;7459;53.590;10.062;2022-10-16T09:37:01;16.20;99.90
14737;DHT22;7459;53.590;10.062;2022-10-16T09:39:28;16.20;99.90
14737;DHT22;7459;53.590;10.062;2022-10-16T09:41:55;16.20;99.90
14737;DHT22;7459;53.590;10.062;2022-10-16T09:44:24;16.30;99.90
14737;DHT22;7459;53.590;10.062;2022-10-16T09:47:03;16.30;99.90
14737;DHT22;7459;53.590;10.062;2022-10-16T09:49:51;16.30;99.90
14737;DHT22;7459;53.590;10.062;2022-10-16T09:52:23;16.30;99.90
14737;DHT22;7459;53.590;10.062;2022-10-16T09:54:53;16.30;99.90
14737;DHT22;7459;53.590;10.062;2022-10-16T09:57:21;16.40;99.90
14737;DHT22;7459;53.590;10.062;2022-10-16T09:59:50;16.50;99.90
14737;DHT22;7459;53.590;10.062;2022-10-16T10:02:28;16.50;99.90
14737;DHT22;7459;53.590;10.062;2022-10-16T10:04:55;16.60;99.90
14737;DHT22;7459;53.590;10.062;2022-10-16T10:07:27;16.70;99.90
14737;DHT22;7459;53.590;10.062;2022-10-16T10:09:55;16.70;99.90
14737;DHT22;7459;53.590;10.062;2022-10-16T10:12:29;16.80;99.90
14737;DHT22;7459;53.590;10.062;2022-10-16T10:15:03;16.80;99.90
14737;DHT22;7459;53.590;10.062;2022-10-16T10:17:30;16.80;99.90
14737;DHT22;7459;53.590;10.062;2022-10-16T10:20:24;16.80;99.90
14737;DHT22;7459;53.590;10.062;2022-10-16T10:22:50;16.90;99.90
14737;DHT22;7459;53.590;10.062;2022-10-16T10:34:23;17.00;99.90
14737;DHT22;7459;53.590;10.062;2022-10-16T10:40:29;17.20;99.90
14737;DHT22;7459;53.590;10.062;2022-10-16T10:43:21;17.20;99.90
14737;DHT22;7459;53.590;10.062;2022-10-16T10:46:03;17.20;99.90
14737;DHT22;7459;53.590;10.062;2022-10-16T10:48:54;17.30;99.90
14737;DHT22;7459;53.590;10.062;2022-10-16T10:51:58;17.40;99.90
14737;DHT22;7459;53.590;10.062;2022-10-16T10:55:14;17.40;99.90
14737;DHT22;7459;53.590;10.062;2022-10-16T10:58:15;17.50;99.90
14737;DHT22;7459;53.590;10.062;2022-10-16T11:00:55;17.50;99.90
14737;DHT22;7459;53.590;10.062;2022-10-16T11:06:26;17.70;99.90
14737;DHT22;7459;53.590;10.062;2022-10-16T11:12:18;17.90;99.90
14737;DHT22;7459;53.590;10.062;2022-10-16T11:15:15;18.00;99.90
14737;DHT22;7459;53.590;10.062;2022-10-16T11:17:45;18.10;99.90
14737;DHT22;7459;53.590;10.062;2022-10-16T11:20:21;18.10;99.90
14737;DHT22;7459;53.590;10.062;2022-10-16T11:24:03;18.10;99.90
14737;DHT22;7459;53.590;10.062;2022-10-16T11:26:27;18.20;99.90
14737;DHT22;7459;53.590;10.062;2022-10-16T11:28:56;18.20;99.90
14737;DHT22;7459;53.590;10.062;2022-10-16T11:31:36;18.20;99.90
14737;DHT22;7459;53.590;10.062;2022-10-16T11:34:25;18.30;99.90
14737;DHT22;7459;53.590;10.062;2022-10-16T11:37:17;18.40;99.90
14737;DHT22;7459;53.590;10.062;2022-10-16T11:39:46;18.40;99.90
14737;DHT22;7459;53.590;10.062;2022-10-16T11:42:22;18.40;99.90
14737;DHT22;7459;53.590;10.062;2022-10-16T11:45:00;18.40;99.90
14737;DHT22;7459;53.590;10.062;2022-10-16T11:47:45;18.20;99.90
14737;DHT22;7459;53.590;10.062;2022-10-16T11:50:28;18.20;99.90
14737;DHT22;7459;53.590;10.062;2022-10-16T11:56:20;18.00;99.90
14737;DHT22;7459;53.590;10.062;2022-10-16T11:59:02;17.90;99.90
14737;DHT22;7459;53.590;10.062;2022-10-16T12:01:44;17.90;99.90
14737;DHT22;7459;53.590;10.062;2022-10-16T12:04:26;17.90;99.90
14737;DHT22;7459;53.590;10.062;2022-10-16T12:07:03;17.90;99.90
14737;DHT22;7459;53.590;10.062;2022-10-16T12:09:33;17.80;99.90
14737;DHT22;7459;53.590;10.062;2022-10-16T12:12:01;17.90;99.90
14737;DHT22;7459;53.590;10.062;2022-10-16T12:22:50;17.90;99.90
14737;DHT22;7459;53.590;10.062;2022-10-16T12:25:36;18.00;99.90
14737;DHT22;7459;53.590;10.062;2022-10-16T12:28:20;18.10;99.90
14737;DHT22;7459;53.590;10.062;2022-10-16T12:31:03;18.10;99.90
14737;DHT22;7459;53.590;10.062;2022-10-16T12:33:35;18.20;99.90
14737;DHT22;7459;53.590;10.062;2022-10-16T12:36:05;18.30;99.90
14737;DHT22;7459;53.590;10.062;2022-10-16T12:38:50;18.30;99.90
14737;DHT22;7459;53.590;10.062;2022-10-16T12:43:58;18.20;99.90
14737;DHT22;7459;53.590;10.062;2022-10-16T12:46:38;18.10;99.90
14737;DHT22;7459;53.590;10.062;2022-10-16T12:49:31;18.10;99.90
14737;DHT22;7459;53.590;10.062;2022-10-16T12:52:01;18.00;99.90
14737;DHT22;7459;53.590;10.062;2022-10-16T12:54:38;18.00;99.90
14737;DHT22;7459;53.590;10.062;2022-10-16T13:00:32;18.10;99.90
14737;DHT22;7459;53.590;10.062;2022-10-16T13:03:22;18.00;99.90
14737;DHT22;7459;53.590;10.062;2022-10-16T13:19:29;18.10;99.90
14737;DHT22;7459;53.590;10.062;2022-10-16T13:24:53;18.10;99.90
14737;DHT22;7459;53.590;10.062;2022-10-16T13:27:45;18.20;99.90
14737;DHT22;7459;53.590;10.062;2022-10-16T13:30:28;18.20;99.90
14737;DHT22;7459;53.590;10.062;2022-10-16T13:33:07;18.20;99.90
14737;DHT22;7459;53.590;10.062;2022-10-16T13:35:57;18.20;99.90
14737;DHT22;7459;53.590;10.062;2022-10-16T13:38:25;18.30;99.90
14737;DHT22;7459;53.590;10.062;2022-10-16T13:41:12;18.30;99.90
14737;DHT22;7459;53.590;10.062;2022-10-16T13:43:45;18.30;99.90
14737;DHT22;7459;53.590;10.062;2022-10-16T13:46:24;18.30;99.90
14737;DHT22;7459;53.590;10.062;2022-10-16T13:48:58;18.30;99.90
14737;DHT22;7459;53.590;10.062;2022-10-16T13:51:29;18.30;99.90
14737;DHT22;7459;53.590;10.062;2022-10-16T13:53:56;18.20;99.90
14737;DHT22;7459;53.590;10.062;2022-10-16T13:56:25;18.10;99.90
14737;DHT22;7459;53.590;10.062;2022-10-16T13:59:03;18.00;99.90
14737;DHT22;7459;53.590;10.062;2022-10-16T14:01:42;17.90;99.90
14737;DHT22;7459;53.590;10.062;2022-10-16T14:04:11;17.90;99.90
14737;DHT22;7459;53.590;10.062;2022-10-16T14:06:44;17.80;99.90
14737;DHT22;7459;53.590;10.062;2022-10-16T14:09:26;17.80;99.90
14737;DHT22;7459;53.590;10.062;2022-10-16T14:11:57;17.70;99.90
14737;DHT22;7459;53.590;10.062;2022-10-16T14:14:34;17.70;99.90
14737;DHT22;7459;53.590;10.062;2022-10-16T14:17:05;17.70;99.90
14737;DHT22;7459;53.590;10.062;2022-10-16T14:19:32;17.80;99.90
14737;DHT22;7459;53.590;10.062;2022-10-16T14:21:59;17.80;99.90
14737;DHT22;7459;53.590;10.062;2022-10-16T14:26:58;17.70;99.90
14737;DHT22;7459;53.590;10.062;2022-10-16T14:29:26;17.70;99.90
14737;DHT22;7459;53.590;10.062;2022-10-16T14:31:57;17.80;99.90
14737;DHT22;7459;53.590;10.062;2022-10-16T14:34:33;17.90;99.90
14737;DHT22;7459;53.590;10.062;2022-10-16T14:37:08;17.90;99.90
14737;DHT22;7459;53.590;10.062;2022-10-16T14:39:39;17.90;99.90
14737;DHT22;7459;53.590;10.062;2022-10-16T14:42:14;17.90;99.90
14737;DHT22;7459;53.590;10.062;2022-10-16T14:44:43;17.90;99.90
14737;DHT22;7459;53.590;10.062;2022-10-16T14:47:13;17.90;99.90
14737;DHT22;7459;53.590;10.062;2022-10-16T14:49:41;17.90;99.90
14737;DHT22;7459;53.590;10.062;2022-10-16T14:52:10;17.90;99.90
14737;DHT22;7459;53.590;10.062;2022-10-16T14:54:37;17.80;99.90
14737;DHT22;7459;53.590;10.062;2022-10-16T14:57:03;17.70;99.90
14737;DHT22;7459;53.590;10.062;2022-10-16T14:59:35;17.70;99.90
14737;DHT22;7459;53.590;10.062;2022-10-16T15:04:45;17.70;99.90
14737;DHT22;7459;53.590;10.062;2022-10-16T15:07:11;17.70;99.90
14737;DHT22;7459;53.590;10.062;2022-10-16T15:09:37;17.70;99.90
14737;DHT22;7459;53.590;10.062;2022-10-16T15:12:02;17.70;99.90
14737;DHT22;7459;53.590;10.062;2022-10-16T15:14:28;17.60;99.90
14737;DHT22;7459;53.590;10.062;2022-10-16T15:16:54;17.60;99.90
14737;DHT22;7459;53.590;10.062;2022-10-16T15:19:19;17.50;99.90
14737;DHT22;7459;53.590;10.062;2022-10-16T15:21:45;17.50;99.90
14737;DHT22;7459;53.590;10.062;2022-10-16T15:24:12;17.40;99.90
14737;DHT22;7459;53.590;10.062;2022-10-16T15:26:39;17.40;99.90
14737;DHT22;7459;53.590;10.062;2022-10-16T15:29:04;17.40;99.90
14737;DHT22;7459;53.590;10.062;2022-10-16T15:31:30;17.30;99.90
14737;DHT22;7459;53.590;10.062;2022-10-16T15:33:56;17.30;99.90
14737;DHT22;7459;53.590;10.062;2022-10-16T15:36:32;17.30;99.90
14737;DHT22;7459;53.590;10.062;2022-10-16T15:39:05;17.20;99.90
14737;DHT22;7459;53.590;10.062;2022-10-16T15:41:36;17.20;99.90
14737;DHT22;7459;53.590;10.062;2022-10-16T15:44:01;17.20;99.90
14737;DHT22;7459;53.590;10.062;2022-10-16T15:46:27;17.10;99.90
14737;DHT22;7459;53.590;10.062;2022-10-16T15:48:57;17.10;99.90
14737;DHT22;7459;53.590;10.062;2022-10-16T15:51:24;17.10;99.90
14737;DHT22;7459;53.590;10.062;2022-10-16T15:53:52;17.10;99.90
14737;DHT22;7459;53.590;10.062;2022-10-16T15:56:19;17.00;99.90
14737;DHT22;7459;53.590;10.062;2022-10-16T15:58:44;17.00;99.90
14737;DHT22;7459;53.590;10.062;2022-10-16T16:01:11;17.00;99.90
14737;DHT22;7459;53.590;10.062;2022-10-16T16:03:38;16.90;99.90
14737;DHT22;7459;53.590;10.062;2022-10-16T16:06:08;16.90;99.90
14737;DHT22;7459;53.590;10.062;2022-10-16T16:08:35;16.90;99.90
14737;DHT22;7459;53.590;10.062;2022-10-16T16:11:04;16.80;99.90
14737;DHT22;7459;53.590;10.062;2022-10-16T16:13:31;16.80;99.90
14737;DHT22;7459;53.590;10.062;2022-10-16T16:15:57;16.70;99.90
14737;DHT22;7459;53.590;10.062;2022-10-16T16:18:23;16.70;99.90
14737;DHT22;7459;53.590;10.062;2022-10-16T16:20:52;16.70;99.90
14737;DHT22;7459;53.590;10.062;2022-10-16T16:23:18;16.60;99.90
14737;DHT22;7459;53.590;10.062;2022-10-16T16:25:45;16.60;99.90
14737;DHT22;7459;53.590;10.062;2022-10-16T16:28:10;16.60;99.90
14737;DHT22;7459;53.590;10.062;2022-10-16T16:30:39;16.50;99.90
14737;DHT22;7459;53.590;10.062;2022-10-16T16:33:06;16.50;99.90
14737;DHT22;7459;53.590;10.062;2022-10-16T16:35:32;16.40;99.90
14737;DHT22;7459;53.590;10.062;2022-10-16T16:37:57;16.40;99.90
14737;DHT22;7459;53.590;10.062;2022-10-16T16:40:23;16.30;99.90
14737;DHT22;7459;53.590;10.062;2022-10-16T16:42:49;16.30;99.90
14737;DHT22;7459;53.590;10.062;2022-10-16T16:45:15;16.20;99.90
14737;DHT22;7459;53.590;10.062;2022-10-16T16:47:40;16.20;99.90
14737;DHT22;7459;53.590;10.062;2022-10-16T16:50:06;16.20;99.90
14737;DHT22;7459;53.590;10.062;2022-10-16T16:52:34;16.10;99.90
14737;DHT22;7459;53.590;10.062;2022-10-16T16:55:00;16.10;99.90
14737;DHT22;7459;53.590;10.062;2022-10-16T16:57:26;16.00;99.90
14737;DHT22;7459;53.590;10.062;2022-10-16T16:59:52;16.00;99.90
14737;DHT22;7459;53.590;10.062;2022-10-16T17:02:17;15.90;99.90
14737;DHT22;7459;53.590;10.062;2022-10-16T17:04:43;15.90;99.90
14737;DHT22;7459;53.590;10.062;2022-10-16T17:07:09;15.80;99.90
14737;DHT22;7459;53.590;10.062;2022-10-16T17:09:34;15.70;99.90
14737;DHT22;7459;53.590;10.062;2022-10-16T17:12:00;15.70;99.90
14737;DHT22;7459;53.590;10.062;2022-10-16T17:14:26;15.60;99.90
14737;DHT22;7459;53.590;10.062;2022-10-16T17:16:52;15.60;99.90
14737;DHT22;7459;53.590;10.062;2022-10-16T17:19:18;15.60;99.90
14737;DHT22;7459;53.590;10.062;2022-10-16T17:21:45;15.50;99.90
14737;DHT22;7459;53.590;10.062;2022-10-16T17:24:13;15.50;99.90
14737;DHT22;7459;53.590;10.062;2022-10-16T17:26:39;15.50;99.90